Time;durP1;ratioP1;P1;durP2;ratioP2;P2;SDS_P1;SDS_P2;PMS_P1;PMS_P2;Temp;Humidity;BMP_temperature;BMP_pressure;BME280_temperature;BME280_humidity;BME280_pressure;Samples;Min_cycle;Max_cycle;Signal;HPM_P1;HPM_P2
2023/05/03 00:01:08;;;;;;;2.43;0.50;;;6.30;99.90;;;;;;4948899;28;20034;-68
2023/05/03 00:03:36;;;;;;;2.75;0.40;;;6.30;99.90;;;;;;4948000;28;20038;-68
2023/05/03 00:06:10;;;;;;;2.53;0.33;;;6.30;99.90;;;;;;4957125;28;20413;-69
2023/05/03 00:08:36;;;;;;;2.43;0.33;;;6.30;99.90;;;;;;4957683;28;20413;-67
2023/05/03 00:11:02;;;;;;;2.95;0.45;;;6.30;99.90;;;;;;4953232;28;21303;-68
2023/05/03 00:13:29;;;;;;;1.58;0.30;;;6.30;99.90;;;;;;4950390;28;20854;-68
2023/05/03 00:15:55;;;;;;;3.13;0.40;;;6.20;99.90;;;;;;4969789;28;20034;-68
2023/05/03 00:18:22;;;;;;;3.87;0.30;;;6.20;99.90;;;;;;4951106;28;20042;-68
2023/05/03 00:20:50;;;;;;;2.80;0.40;;;6.20;99.90;;;;;;4948177;28;20711;-68
2023/05/03 00:23:16;;;;;;;4.60;0.40;;;6.20;99.90;;;;;;4946749;28;20034;-68
2023/05/03 00:25:43;;;;;;;2.55;0.40;;;6.20;99.90;;;;;;4955067;28;20038;-68
2023/05/03 00:28:09;;;;;;;4.50;0.40;;;6.10;99.90;;;;;;4942128;28;20050;-68
2023/05/03 00:30:35;;;;;;;1.53;0.30;;;6.10;99.90;;;;;;4938826;28;20467;-69
2023/05/03 00:33:02;;;;;;;1.95;0.32;;;6.10;99.90;;;;;;4932020;28;20046;-68
2023/05/03 00:35:28;;;;;;;4.25;0.45;;;6.00;99.90;;;;;;4949800;28;20034;-67
2023/05/03 00:37:54;;;;;;;6.93;0.63;;;6.00;99.90;;;;;;4966151;28;20042;-68
2023/05/03 00:40:21;;;;;;;3.37;0.70;;;6.00;99.90;;;;;;4946416;28;20030;-68
2023/05/03 00:42:47;;;;;;;1.83;0.40;;;6.00;99.90;;;;;;4945137;28;21242;-68
2023/05/03 00:45:13;;;;;;;2.60;0.40;;;6.00;99.90;;;;;;4951976;28;20599;-69
2023/05/03 00:47:40;;;;;;;4.13;0.53;;;5.90;99.90;;;;;;4956460;28;20402;-68
2023/05/03 00:50:08;;;;;;;7.43;0.77;;;5.90;99.90;;;;;;4951390;28;20041;-68
2023/05/03 00:52:34;;;;;;;3.83;0.70;;;5.90;99.90;;;;;;4948569;28;20073;-68
2023/05/03 00:55:01;;;;;;;2.70;0.50;;;5.90;99.90;;;;;;4951583;28;20034;-68
2023/05/03 00:57:29;;;;;;;2.47;0.50;;;5.80;99.90;;;;;;4948984;28;20065;-67
2023/05/03 00:59:58;;;;;;;4.03;0.93;;;5.80;99.90;;;;;;4930939;28;20050;-68
2023/05/03 01:02:25;;;;;;;1.60;0.40;;;5.70;99.90;;;;;;4930515;28;20045;-68
2023/05/03 01:04:53;;;;;;;2.33;0.50;;;5.70;99.90;;;;;;4948385;28;20655;-68
2023/05/03 01:07:26;;;;;;;4.77;0.73;;;5.70;99.90;;;;;;4949983;28;20034;-68
2023/05/03 01:10:18;;;;;;;3.58;0.60;;;5.70;99.90;;;;;;4938312;28;20378;-68
2023/05/03 01:12:47;;;;;;;1.88;0.50;;;5.70;99.90;;;;;;4952954;28;20051;-68
2023/05/03 01:15:24;;;;;;;4.77;0.70;;;5.70;99.90;;;;;;4958379;28;20057;-68
2023/05/03 01:17:56;;;;;;;3.27;0.63;;;5.70;99.90;;;;;;4957797;28;20039;-68
2023/05/03 01:20:24;;;;;;;2.78;0.82;;;5.60;99.90;;;;;;4969728;28;20586;-68
2023/05/03 01:23:09;;;;;;;3.72;0.50;;;5.60;99.90;;;;;;4950052;28;20382;-68
2023/05/03 01:25:35;;;;;;;2.63;0.60;;;5.60;99.90;;;;;;4956215;28;20880;-67
2023/05/03 01:28:02;;;;;;;4.77;1.17;;;5.50;99.90;;;;;;4957997;28;21895;-67
2023/05/03 01:30:31;;;;;;;2.67;0.70;;;5.50;99.90;;;;;;4949517;28;20042;-68
2023/05/03 01:33:21;;;;;;;3.73;0.60;;;5.50;99.90;;;;;;4953008;28;20830;-68
2023/05/03 01:36:08;;;;;;;2.80;0.60;;;5.50;99.90;;;;;;4961101;28;20216;-68
2023/05/03 01:38:36;;;;;;;3.50;0.70;;;5.50;99.90;;;;;;4963687;28;20042;-68
2023/05/03 01:41:09;;;;;;;4.80;0.70;;;5.40;99.90;;;;;;4940661;28;20057;-68
2023/05/03 01:43:36;;;;;;;4.55;0.88;;;5.50;99.90;;;;;;4935178;28;20050;-68
2023/05/03 01:46:03;;;;;;;6.10;1.00;;;5.40;99.90;;;;;;4954193;28;20045;-67
2023/05/03 01:48:29;;;;;;;3.30;0.70;;;5.40;99.90;;;;;;4955845;28;20034;-68
2023/05/03 01:50:56;;;;;;;2.88;0.60;;;5.40;99.90;;;;;;4948772;28;21829;-68
2023/05/03 01:53:24;;;;;;;4.90;1.00;;;5.40;99.90;;;;;;4950284;28;20042;-67
2023/05/03 01:55:50;;;;;;;5.43;1.20;;;5.40;99.90;;;;;;4938536;28;20064;-68
2023/05/03 01:58:16;;;;;;;8.03;1.30;;;5.30;99.90;;;;;;4959407;28;20049;-68
2023/05/03 02:00:45;;;;;;;5.83;0.80;;;5.30;99.90;;;;;;4940405;28;20997;-67
2023/05/03 02:03:11;;;;;;;2.97;0.73;;;5.30;99.90;;;;;;4955710;28;20033;-67
2023/05/03 02:05:38;;;;;;;3.07;0.90;;;5.30;99.90;;;;;;4962422;28;20046;-67
2023/05/03 02:08:04;;;;;;;3.87;0.80;;;5.20;99.90;;;;;;4956294;28;20042;-67
2023/05/03 02:10:30;;;;;;;2.80;0.60;;;5.20;99.90;;;;;;4950348;28;20056;-67
2023/05/03 02:12:57;;;;;;;3.73;0.80;;;5.30;99.90;;;;;;4951572;28;20069;-68
2023/05/03 02:15:23;;;;;;;2.70;0.60;;;5.20;99.90;;;;;;4954291;28;20046;-68
2023/05/03 02:17:50;;;;;;;4.37;1.07;;;5.20;99.90;;;;;;4939973;28;20141;-68
2023/05/03 02:20:16;;;;;;;3.07;0.73;;;5.20;99.90;;;;;;4952591;28;20045;-68
2023/05/03 02:22:42;;;;;;;2.07;0.70;;;5.20;99.90;;;;;;4938175;28;20042;-67
2023/05/03 02:25:08;;;;;;;1.90;0.80;;;5.20;99.90;;;;;;4961175;28;20030;-67
2023/05/03 02:27:35;;;;;;;3.73;0.90;;;5.10;99.90;;;;;;4943928;28;20031;-68
2023/05/03 02:30:01;;;;;;;4.37;0.83;;;5.10;99.90;;;;;;4951463;28;20038;-67
2023/05/03 02:32:30;;;;;;;4.70;0.80;;;5.10;99.90;;;;;;4933301;28;20049;-68
2023/05/03 02:34:56;;;;;;;3.50;0.70;;;5.10;99.90;;;;;;4938302;28;20042;-68
2023/05/03 02:37:24;;;;;;;4.87;0.80;;;5.10;99.90;;;;;;4954917;28;20065;-68
2023/05/03 02:39:51;;;;;;;3.43;0.77;;;5.10;99.90;;;;;;4970075;28;20039;-67
2023/05/03 02:42:18;;;;;;;4.27;0.70;;;5.10;99.90;;;;;;4934660;28;20030;-68
2023/05/03 02:44:45;;;;;;;2.80;0.67;;;5.10;99.90;;;;;;4941860;28;20030;-68
2023/05/03 02:47:11;;;;;;;3.17;0.67;;;5.10;99.90;;;;;;4944133;28;20050;-68
2023/05/03 02:49:40;;;;;;;5.20;0.70;;;5.00;99.90;;;;;;4941728;28;20594;-68
2023/05/03 02:52:07;;;;;;;4.60;0.80;;;5.00;99.90;;;;;;4937426;28;20687;-68
2023/05/03 02:54:33;;;;;;;3.17;0.47;;;5.00;99.90;;;;;;4964625;28;20046;-68
2023/05/03 02:57:04;;;;;;;3.80;0.70;;;5.00;99.90;;;;;;4953329;28;20048;-68
2023/05/03 02:59:31;;;;;;;1.73;0.50;;;5.00;99.90;;;;;;4964290;28;20034;-67
2023/05/03 03:01:59;;;;;;;3.20;0.40;;;5.00;99.90;;;;;;4944268;28;20034;-68
2023/05/03 03:04:26;;;;;;;3.90;0.53;;;5.00;99.90;;;;;;4946580;28;20034;-68
2023/05/03 03:06:52;;;;;;;1.90;0.40;;;5.00;99.90;;;;;;4953430;28;20065;-69
2023/05/03 03:09:19;;;;;;;1.90;0.57;;;5.00;99.90;;;;;;4940070;28;20034;-67
2023/05/03 03:11:45;;;;;;;2.87;0.50;;;4.90;99.90;;;;;;4949007;28;20065;-67
2023/05/03 03:14:12;;;;;;;2.87;0.50;;;4.90;99.90;;;;;;4954158;28;20053;-68
2023/05/03 03:16:40;;;;;;;3.00;0.40;;;4.90;99.90;;;;;;4949105;28;20026;-68
2023/05/03 03:19:06;;;;;;;3.90;0.60;;;4.90;99.90;;;;;;4950763;28;20030;-68
2023/05/03 03:21:34;;;;;;;2.93;0.60;;;4.90;99.90;;;;;;4961288;28;20038;-68
2023/05/03 03:24:02;;;;;;;3.30;0.50;;;4.90;99.90;;;;;;4947201;28;20057;-68
2023/05/03 03:26:28;;;;;;;5.20;0.50;;;4.80;99.90;;;;;;4953453;28;20030;-68
2023/05/03 03:28:55;;;;;;;2.23;0.50;;;4.80;99.90;;;;;;4968124;28;20053;-68
2023/05/03 03:31:22;;;;;;;4.77;0.50;;;4.80;99.90;;;;;;4936481;28;21413;-68
2023/05/03 03:33:48;;;;;;;5.43;0.90;;;4.80;99.90;;;;;;4941077;28;20046;-68
2023/05/03 03:36:18;;;;;;;4.60;0.50;;;4.80;99.90;;;;;;4962084;28;20034;-68
2023/05/03 03:38:47;;;;;;;5.30;0.70;;;4.80;99.90;;;;;;4969483;28;20042;-67
2023/05/03 03:41:13;;;;;;;1.53;0.50;;;4.80;99.90;;;;;;4945593;28;20034;-67
2023/05/03 03:43:40;;;;;;;1.97;0.47;;;4.70;99.90;;;;;;4918162;28;20050;-68
2023/05/03 03:46:11;;;;;;;5.77;0.50;;;4.70;99.90;;;;;;4950775;28;20046;-67
2023/05/03 03:48:38;;;;;;;2.33;0.50;;;4.70;99.90;;;;;;4938036;28;20038;-68
2023/05/03 03:51:05;;;;;;;2.13;0.53;;;4.70;99.90;;;;;;4951288;28;20034;-68
2023/05/03 03:53:38;;;;;;;4.50;0.50;;;4.70;99.90;;;;;;4951540;28;20631;-68
2023/05/03 03:56:05;;;;;;;1.87;0.53;;;4.70;99.90;;;;;;4939697;28;20082;-68
2023/05/03 03:58:32;;;;;;;2.70;0.50;;;4.70;99.90;;;;;;4975425;28;20042;-68
2023/05/03 04:00:59;;;;;;;2.53;0.47;;;4.70;99.90;;;;;;4945818;28;20038;-68
2023/05/03 04:03:27;;;;;;;3.60;0.50;;;4.60;99.90;;;;;;4931804;28;20509;-67
2023/05/03 04:05:54;;;;;;;2.27;0.50;;;4.70;99.90;;;;;;4950873;28;20057;-67
2023/05/03 04:08:21;;;;;;;2.07;0.43;;;4.60;99.90;;;;;;4950380;28;20688;-68
2023/05/03 04:10:48;;;;;;;2.80;0.57;;;4.60;99.90;;;;;;4932904;28;20050;-68
2023/05/03 04:13:14;;;;;;;2.83;0.60;;;4.60;99.90;;;;;;4944030;28;20042;-67
2023/05/03 04:15:41;;;;;;;3.80;0.53;;;4.60;99.90;;;;;;4936343;28;20057;-68
2023/05/03 04:18:07;;;;;;;2.13;0.50;;;4.60;99.90;;;;;;4960280;28;20398;-68
2023/05/03 04:20:36;;;;;;;1.03;0.40;;;4.60;99.90;;;;;;4937728;28;21698;-67
2023/05/03 04:23:05;;;;;;;3.10;0.60;;;4.60;99.90;;;;;;4935534;28;20046;-68
2023/05/03 04:25:32;;;;;;;3.27;0.60;;;4.70;99.90;;;;;;4933401;28;20062;-68
2023/05/03 04:28:05;;;;;;;6.43;0.68;;;4.70;99.90;;;;;;4949010;28;20038;-68
2023/05/03 04:30:34;;;;;;;3.53;0.70;;;4.70;99.90;;;;;;4960719;28;20065;-68
2023/05/03 04:33:02;;;;;;;2.17;0.50;;;4.70;99.90;;;;;;4942680;28;20042;-68
2023/05/03 04:35:30;;;;;;;6.37;0.60;;;4.70;99.90;;;;;;4948581;28;20042;-67
2023/05/03 04:38:00;;;;;;;2.13;0.40;;;4.70;99.90;;;;;;4947004;28;20097;-68
2023/05/03 04:40:28;;;;;;;3.70;0.60;;;4.80;99.90;;;;;;4952555;28;20038;-68
2023/05/03 04:43:02;;;;;;;5.37;1.00;;;4.80;99.90;;;;;;4939213;28;20055;-68
2023/05/03 04:45:31;;;;;;;3.50;0.50;;;4.90;99.90;;;;;;4972663;28;20042;-68
2023/05/03 04:47:57;;;;;;;2.80;0.60;;;5.00;99.90;;;;;;4946567;28;20736;-68
2023/05/03 04:50:24;;;;;;;5.23;0.60;;;5.10;99.90;;;;;;4957777;28;20060;-69
2023/05/03 04:52:51;;;;;;;4.97;0.60;;;5.20;99.90;;;;;;4958933;28;23230;-68
2023/05/03 04:55:19;;;;;;;8.43;1.03;;;5.30;99.90;;;;;;4934667;28;20038;-68
2023/05/03 04:57:46;;;;;;;1.67;0.53;;;5.40;99.90;;;;;;4951181;28;20042;-67
2023/05/03 05:00:14;;;;;;;5.83;1.80;;;5.60;99.90;;;;;;4951254;28;20533;-69
2023/05/03 05:02:45;;;;;;;9.43;3.20;;;5.80;99.90;;;;;;4933437;28;20042;-67
2023/05/03 05:05:13;;;;;;;16.77;5.17;;;6.00;99.90;;;;;;4946017;28;20034;-67
2023/05/03 05:07:39;;;;;;;4.37;1.80;;;6.10;99.90;;;;;;4961902;28;20042;-67
2023/05/03 05:10:09;;;;;;;4.97;1.20;;;6.20;99.90;;;;;;4953957;28;20735;-68
2023/05/03 05:12:36;;;;;;;8.57;0.83;;;6.30;99.90;;;;;;4949512;28;20053;-68
2023/05/03 05:15:05;;;;;;;4.87;1.23;;;6.30;99.90;;;;;;4970214;28;20401;-68
2023/05/03 05:17:31;;;;;;;8.40;2.50;;;6.30;99.90;;;;;;4956420;28;20030;-68
2023/05/03 05:20:00;;;;;;;3.60;0.83;;;6.30;99.90;;;;;;4939079;28;20057;-68
2023/05/03 05:22:28;;;;;;;3.80;0.80;;;6.40;99.90;;;;;;4967075;28;20046;-68
2023/05/03 05:24:59;;;;;;;3.57;0.60;;;6.50;99.90;;;;;;4955835;28;20034;-69
2023/05/03 05:27:26;;;;;;;4.07;0.90;;;6.60;99.90;;;;;;4965342;28;20406;-69
2023/05/03 05:29:53;;;;;;;2.40;0.77;;;6.70;99.90;;;;;;4941010;28;20039;-68
2023/05/03 05:32:20;;;;;;;3.57;1.00;;;6.80;99.90;;;;;;4952994;28;20051;-69
2023/05/03 05:34:54;;;;;;;5.13;1.10;;;6.90;99.90;;;;;;4955069;28;20680;-69
2023/05/03 05:37:21;;;;;;;4.27;0.90;;;7.10;99.90;;;;;;4952439;28;20454;-75
2023/05/03 05:39:48;;;;;;;3.53;1.00;;;7.30;99.90;;;;;;4954727;28;20038;-68
2023/05/03 05:42:16;;;;;;;6.00;0.80;;;7.40;99.90;;;;;;4952931;28;20084;-68
2023/05/03 05:44:42;;;;;;;4.15;1.00;;;7.50;99.90;;;;;;4951581;28;20039;-68
2023/05/03 05:47:09;;;;;;;2.70;0.70;;;7.60;99.90;;;;;;4962272;28;20042;-68
2023/05/03 05:49:36;;;;;;;6.93;0.95;;;7.80;99.90;;;;;;4945674;28;20042;-68
2023/05/03 05:52:04;;;;;;;4.80;0.80;;;8.00;99.90;;;;;;4976077;28;20031;-68
2023/05/03 05:54:31;;;;;;;7.25;0.65;;;8.10;99.90;;;;;;4938912;28;20246;-68
2023/05/03 05:56:59;;;;;;;4.03;0.80;;;8.20;99.90;;;;;;4956715;28;20042;-68
2023/05/03 05:59:28;;;;;;;6.47;1.15;;;8.30;99.90;;;;;;4955180;28;20550;-68
2023/05/03 06:01:56;;;;;;;3.50;0.77;;;8.50;99.90;;;;;;4949628;28;20042;-68
2023/05/03 06:04:22;;;;;;;4.50;1.05;;;8.70;99.90;;;;;;4936963;28;20891;-68
2023/05/03 06:06:49;;;;;;;3.85;0.77;;;8.80;99.90;;;;;;4941082;28;20050;-69
2023/05/03 06:09:16;;;;;;;4.75;0.90;;;8.90;99.90;;;;;;4943029;28;20603;-68
2023/05/03 06:11:42;;;;;;;3.65;0.77;;;9.10;99.90;;;;;;4960414;28;20078;-73
2023/05/03 06:14:09;;;;;;;5.82;0.90;;;9.20;99.90;;;;;;4954150;28;20438;-68
2023/05/03 06:16:39;;;;;;;5.63;0.90;;;9.40;99.90;;;;;;4958276;28;20042;-68
2023/05/03 06:19:05;;;;;;;6.78;0.65;;;9.50;99.90;;;;;;4952929;28;20791;-69
2023/05/03 06:21:31;;;;;;;5.80;0.50;;;9.50;99.90;;;;;;4931892;28;20145;-69
2023/05/03 06:23:59;;;;;;;2.67;0.55;;;9.50;99.90;;;;;;4934732;28;20065;-69
2023/05/03 06:26:27;;;;;;;2.83;0.45;;;9.70;99.90;;;;;;4939025;28;20049;-69
2023/05/03 06:28:53;;;;;;;3.92;0.50;;;10.00;99.90;;;;;;4939425;28;20038;-69
2023/05/03 06:31:20;;;;;;;3.05;0.50;;;10.40;99.90;;;;;;4930688;28;20037;-69
2023/05/03 06:33:47;;;;;;;6.57;0.45;;;10.60;99.90;;;;;;4956537;28;20034;-69
2023/05/03 06:36:14;;;;;;;2.60;0.45;;;10.60;99.90;;;;;;4959092;28;20069;-69
2023/05/03 06:38:42;;;;;;;2.60;0.40;;;10.70;99.90;;;;;;4959417;28;20034;-69
2023/05/03 06:41:09;;;;;;;1.83;0.45;;;10.80;99.90;;;;;;4933011;28;20034;-69
2023/05/03 06:43:35;;;;;;;5.25;0.50;;;11.00;99.90;;;;;;4946346;28;20037;-68
2023/05/03 06:46:05;;;;;;;7.20;0.88;;;11.20;99.90;;;;;;4955620;28;20033;-70
2023/05/03 06:48:31;;;;;;;3.55;0.47;;;11.30;99.90;;;;;;4953495;28;20042;-69
2023/05/03 06:50:58;;;;;;;5.50;0.70;;;11.30;99.10;;;;;;4952392;28;22712;-69
2023/05/03 06:53:24;;;;;;;2.95;0.45;;;11.30;98.80;;;;;;4936353;28;20039;-69
2023/05/03 06:55:50;;;;;;;3.78;0.50;;;11.30;98.40;;;;;;4956115;28;20039;-69
2023/05/03 06:58:17;;;;;;;5.50;0.75;;;11.20;98.20;;;;;;4963371;28;20571;-69
2023/05/03 07:00:43;;;;;;;3.92;0.45;;;11.20;98.40;;;;;;4956835;28;20031;-69
2023/05/03 07:03:10;;;;;;;3.55;0.68;;;11.30;98.20;;;;;;4956358;28;20038;-68
2023/05/03 07:05:36;;;;;;;3.92;0.40;;;11.40;98.00;;;;;;4956317;28;20453;-69
2023/05/03 07:08:02;;;;;;;4.55;0.70;;;11.40;97.80;;;;;;4955475;28;20042;-69
2023/05/03 07:10:29;;;;;;;3.95;0.40;;;11.40;97.80;;;;;;4947906;28;20095;-69
2023/05/03 07:12:56;;;;;;;5.57;0.47;;;11.40;98.00;;;;;;4947432;28;20043;-69
2023/05/03 07:15:22;;;;;;;3.15;0.50;;;11.40;98.00;;;;;;4954136;28;20042;-69
2023/05/03 07:17:48;;;;;;;4.72;0.60;;;11.50;97.70;;;;;;4957206;28;20039;-69
2023/05/03 07:20:15;;;;;;;3.38;1.00;;;11.50;97.40;;;;;;4956759;28;20027;-70
2023/05/03 07:22:41;;;;;;;8.38;0.60;;;11.40;97.40;;;;;;4951143;28;20030;-68
2023/05/03 07:25:08;;;;;;;3.47;0.60;;;11.30;97.00;;;;;;4958915;28;20039;-69
2023/05/03 07:27:34;;;;;;;2.95;0.65;;;11.20;97.20;;;;;;4957451;28;20042;-69
2023/05/03 07:30:02;;;;;;;3.22;0.43;;;11.30;97.40;;;;;;4951932;28;21330;-70
2023/05/03 07:32:28;;;;;;;6.07;0.68;;;11.50;97.40;;;;;;4949611;28;20047;-69
2023/05/03 07:34:55;;;;;;;2.70;0.50;;;11.50;97.10;;;;;;4950480;28;20038;-70
2023/05/03 07:37:21;;;;;;;2.63;0.60;;;11.50;97.00;;;;;;4955481;28;20057;-69
2023/05/03 07:39:48;;;;;;;3.40;0.88;;;11.60;97.10;;;;;;4952437;28;20038;-69
2023/05/03 07:42:14;;;;;;;5.78;0.75;;;11.70;96.20;;;;;;4951307;28;20034;-69
2023/05/03 07:44:40;;;;;;;6.32;0.68;;;11.60;96.10;;;;;;4959405;28;20038;-69
2023/05/03 07:47:07;;;;;;;5.10;0.60;;;11.70;96.00;;;;;;4961377;28;20054;-69
2023/05/03 07:49:35;;;;;;;7.95;0.75;;;11.70;96.20;;;;;;4957039;28;20058;-69
2023/05/03 07:52:01;;;;;;;3.45;0.70;;;11.70;96.20;;;;;;4951004;28;20049;-69
2023/05/03 07:54:28;;;;;;;7.57;1.20;;;11.80;96.10;;;;;;4935274;28;20855;-69
2023/05/03 07:56:54;;;;;;;3.22;1.00;;;11.80;95.80;;;;;;4953500;28;20042;-69
2023/05/03 07:59:21;;;;;;;3.58;0.82;;;11.90;95.70;;;;;;4955328;28;20050;-69
2023/05/03 08:01:47;;;;;;;7.50;1.13;;;11.90;95.80;;;;;;4948382;28;20474;-69
2023/05/03 08:04:13;;;;;;;6.63;0.90;;;12.00;95.80;;;;;;4950892;28;20034;-69
2023/05/03 08:06:41;;;;;;;3.33;0.60;;;12.00;95.50;;;;;;4958725;28;20034;-70
2023/05/03 08:09:07;;;;;;;2.03;0.68;;;12.10;95.40;;;;;;4960109;28;20069;-69
2023/05/03 08:11:34;;;;;;;4.75;0.63;;;12.20;95.40;;;;;;4954534;28;20054;-68
2023/05/03 08:14:00;;;;;;;6.43;0.60;;;12.40;95.20;;;;;;4955201;28;20033;-69
2023/05/03 08:16:27;;;;;;;6.35;0.63;;;12.50;95.10;;;;;;4952358;28;20407;-69
2023/05/03 08:18:53;;;;;;;1.98;0.40;;;12.60;94.90;;;;;;4953963;28;20481;-69
2023/05/03 08:21:20;;;;;;;1.95;0.40;;;12.60;94.50;;;;;;4949459;28;20030;-69
2023/05/03 08:23:47;;;;;;;4.97;0.63;;;12.70;94.50;;;;;;4950609;28;20038;-69
2023/05/03 08:26:14;;;;;;;2.33;0.40;;;12.80;94.50;;;;;;4953691;28;20038;-69
2023/05/03 08:28:41;;;;;;;3.47;0.50;;;13.00;94.70;;;;;;4956773;28;20038;-70
2023/05/03 08:31:07;;;;;;;1.92;0.38;;;13.20;94.50;;;;;;4954500;28;20046;-69
2023/05/03 08:33:34;;;;;;;1.65;0.40;;;13.40;94.10;;;;;;4966528;28;20043;-69
2023/05/03 08:36:00;;;;;;;2.20;0.45;;;13.40;93.50;;;;;;4957907;28;20052;-69
2023/05/03 08:38:27;;;;;;;3.30;0.52;;;13.50;93.60;;;;;;4954289;28;20031;-69
2023/05/03 08:40:56;;;;;;;2.40;0.47;;;13.70;93.50;;;;;;4946647;28;20034;-69
2023/05/03 08:43:25;;;;;;;3.67;0.50;;;13.90;93.20;;;;;;4965449;28;20470;-69
2023/05/03 08:45:51;;;;;;;4.38;0.40;;;14.00;92.90;;;;;;4935920;28;20049;-69
2023/05/03 08:48:18;;;;;;;4.60;1.02;;;14.00;92.50;;;;;;4957405;28;20038;-69
2023/05/03 08:50:44;;;;;;;3.60;0.70;;;14.00;92.00;;;;;;4950050;28;20038;-70
2023/05/03 08:53:10;;;;;;;3.17;0.43;;;13.90;91.50;;;;;;4953578;28;20034;-70
2023/05/03 08:55:37;;;;;;;2.92;0.45;;;14.00;91.90;;;;;;4960460;28;20034;-69
2023/05/03 08:58:09;;;;;;;2.33;0.60;;;14.00;91.50;;;;;;4959660;28;20611;-70
2023/05/03 09:00:35;;;;;;;3.83;0.60;;;13.90;91.30;;;;;;4964676;28;20048;-69
2023/05/03 09:03:02;;;;;;;3.10;0.68;;;14.00;91.20;;;;;;4948852;28;20038;-69
2023/05/03 09:05:29;;;;;;;2.88;0.60;;;14.00;91.20;;;;;;4936317;28;20054;-70
2023/05/03 09:08:06;;;;;;;4.80;0.82;;;14.00;91.10;;;;;;4953590;28;20030;-69
2023/05/03 09:10:37;;;;;;;2.95;0.50;;;14.10;90.50;;;;;;4948272;28;20471;-69
2023/05/03 09:13:03;;;;;;;2.92;0.60;;;14.30;90.80;;;;;;4951276;28;21589;-69
2023/05/03 09:15:31;;;;;;;6.55;0.73;;;14.40;90.40;;;;;;4957126;28;20054;-70
2023/05/03 09:18:19;;;;;;;2.05;0.40;;;14.40;90.30;;;;;;4957782;28;20038;-69
2023/05/03 09:20:50;;;;;;;3.70;0.75;;;14.60;90.30;;;;;;4952238;28;20041;-70
2023/05/03 09:23:19;;;;;;;3.22;0.50;;;14.50;89.60;;;;;;4946916;28;20042;-70
2023/05/03 09:25:47;;;;;;;2.42;0.50;;;14.50;90.00;;;;;;4955133;28;20033;-69
2023/05/03 09:28:15;;;;;;;3.05;0.45;;;14.50;89.70;;;;;;4954040;28;20383;-69
2023/05/03 09:30:43;;;;;;;2.97;0.50;;;14.60;89.90;;;;;;4949662;28;20042;-69
2023/05/03 09:33:10;;;;;;;4.22;0.50;;;14.70;89.70;;;;;;4947657;28;20061;-69
2023/05/03 09:35:56;;;;;;;3.33;0.60;;;14.80;89.10;;;;;;4953690;28;20030;-69
2023/05/03 09:38:30;;;;;;;2.60;0.50;;;15.00;88.90;;;;;;4960321;28;20729;-69
2023/05/03 09:40:57;;;;;;;2.83;0.63;;;14.90;88.70;;;;;;4943170;28;20513;-70
2023/05/03 09:43:24;;;;;;;3.03;0.68;;;15.10;88.40;;;;;;4940146;28;20064;-69
2023/05/03 09:45:50;;;;;;;3.28;0.60;;;15.20;88.00;;;;;;4955323;28;20416;-69
2023/05/03 09:48:17;;;;;;;2.95;0.60;;;15.30;87.10;;;;;;4956083;28;20030;-69
2023/05/03 09:50:44;;;;;;;5.40;0.70;;;15.40;86.60;;;;;;4950732;28;20038;-69
2023/05/03 09:53:11;;;;;;;2.42;0.50;;;15.30;85.80;;;;;;4951763;28;20034;-69
2023/05/03 09:55:39;;;;;;;4.07;0.68;;;15.20;85.90;;;;;;4957860;28;20049;-69
2023/05/03 09:58:06;;;;;;;3.78;0.65;;;15.30;86.00;;;;;;4958369;28;20049;-69
2023/05/03 10:00:41;;;;;;;3.42;0.80;;;15.30;85.20;;;;;;4974825;28;20505;-70
2023/05/03 10:03:10;;;;;;;2.85;0.50;;;15.30;84.70;;;;;;4957608;28;20050;-70
2023/05/03 10:05:47;;;;;;;2.30;0.60;;;15.20;84.60;;;;;;4960640;28;20053;-69
2023/05/03 10:08:27;;;;;;;4.45;0.90;;;15.30;85.30;;;;;;4956744;28;20591;-69
2023/05/03 10:10:53;;;;;;;2.78;0.60;;;15.40;84.70;;;;;;4949658;28;20049;-69
2023/05/03 10:13:23;;;;;;;2.65;0.50;;;15.50;84.30;;;;;;4968490;28;20042;-69
2023/05/03 10:16:00;;;;;;;2.13;0.47;;;15.50;83.90;;;;;;4957585;28;20608;-69
2023/05/03 10:18:30;;;;;;;2.58;0.45;;;15.50;84.60;;;;;;4957332;28;20417;-69
2023/05/03 10:21:13;;;;;;;3.38;0.55;;;15.70;83.60;;;;;;4955303;28;20034;-70
2023/05/03 10:24:14;;;;;;;4.18;0.65;;;15.70;83.20;;;;;;4954601;28;20042;-69
2023/05/03 10:26:45;;;;;;;3.15;0.43;;;16.00;82.80;;;;;;4962075;28;20045;-69
2023/05/03 10:29:33;;;;;;;3.40;0.50;;;16.20;83.00;;;;;;4961906;28;20049;-69
2023/05/03 10:32:01;;;;;;;2.92;0.60;;;16.70;82.90;;;;;;4955453;28;20471;-67
2023/05/03 10:34:32;;;;;;;3.38;0.60;;;17.10;81.60;;;;;;4949995;28;20046;-68
2023/05/03 10:37:07;;;;;;;2.28;0.50;;;17.20;79.80;;;;;;4968523;28;20038;-67
2023/05/03 10:39:33;;;;;;;2.83;0.50;;;17.40;80.50;;;;;;4955770;28;20390;-69
2023/05/03 10:42:07;;;;;;;3.47;0.50;;;17.80;80.10;;;;;;4952415;28;20386;-68
2023/05/03 10:44:50;;;;;;;6.25;0.95;;;18.20;79.60;;;;;;4949637;28;20041;-68
2023/05/03 10:47:18;;;;;;;2.45;0.70;;;18.50;78.20;;;;;;4961767;28;20038;-68
2023/05/03 10:49:45;;;;;;;3.05;0.60;;;18.80;76.70;;;;;;4956800;28;20069;-67
2023/05/03 10:52:36;;;;;;;3.15;0.50;;;19.10;76.20;;;;;;4960802;28;20034;-67
2023/05/03 10:55:12;;;;;;;2.95;0.57;;;19.30;74.50;;;;;;4951218;28;20035;-67
2023/05/03 10:57:41;;;;;;;4.32;0.55;;;19.40;73.80;;;;;;4972329;28;20316;-68
2023/05/03 11:00:13;;;;;;;2.50;0.60;;;19.70;72.90;;;;;;4953049;28;20038;-68
2023/05/03 11:03:15;;;;;;;3.03;0.50;;;19.80;72.30;;;;;;4951185;28;20026;-67
2023/05/03 11:05:41;;;;;;;2.33;0.57;;;20.10;71.10;;;;;;4940691;28;20494;-68
2023/05/03 11:08:16;;;;;;;2.63;0.55;;;20.30;69.70;;;;;;4959244;28;20049;-68
2023/05/03 11:10:47;;;;;;;9.95;1.55;;;20.60;69.10;;;;;;4954991;28;20469;-68
2023/05/03 11:13:14;;;;;;;3.90;0.98;;;20.90;68.00;;;;;;4955662;28;20938;-68
2023/05/03 11:15:41;;;;;;;5.47;0.70;;;21.00;66.30;;;;;;4959375;28;20054;-67
2023/05/03 11:18:08;;;;;;;2.80;0.50;;;21.10;66.30;;;;;;4953862;28;20047;-67
2023/05/03 11:20:35;;;;;;;3.10;0.55;;;21.30;65.20;;;;;;4952314;28;20042;-67
2023/05/03 11:23:03;;;;;;;4.78;0.70;;;21.30;63.90;;;;;;4949570;28;20038;-67
2023/05/03 11:25:29;;;;;;;5.22;0.50;;;21.30;62.40;;;;;;4955530;28;20185;-67
2023/05/03 11:27:56;;;;;;;2.47;0.95;;;21.20;62.50;;;;;;4954665;28;20533;-67
2023/05/03 11:30:22;;;;;;;4.05;0.60;;;21.30;62.10;;;;;;4951570;28;20034;-68
2023/05/03 11:32:48;;;;;;;1.55;0.50;;;21.40;62.70;;;;;;4956896;28;20254;-67
2023/05/03 11:35:16;;;;;;;4.40;0.90;;;21.80;62.40;;;;;;4962049;28;20049;-68
2023/05/03 11:37:43;;;;;;;6.32;0.73;;;22.00;61.00;;;;;;4960499;28;20038;-68
2023/05/03 11:40:16;;;;;;;3.65;0.82;;;22.30;61.00;;;;;;4938548;28;20042;-69
2023/05/03 11:42:58;;;;;;;2.65;0.52;;;22.80;60.20;;;;;;4949940;28;20030;-68
2023/05/03 11:45:30;;;;;;;2.35;0.50;;;23.00;59.40;;;;;;4954834;28;20034;-67
2023/05/03 11:47:57;;;;;;;3.25;0.70;;;23.30;58.50;;;;;;4954777;28;20402;-68
2023/05/03 11:50:46;;;;;;;3.35;0.80;;;23.40;57.20;;;;;;4951329;28;20602;-68
2023/05/03 11:53:16;;;;;;;2.78;0.52;;;23.60;56.80;;;;;;4964786;28;20043;-67
2023/05/03 11:55:45;;;;;;;2.65;0.82;;;23.80;56.10;;;;;;4959480;28;20045;-67
2023/05/03 11:58:12;;;;;;;3.17;0.40;;;24.10;55.90;;;;;;4960260;28;20035;-68
2023/05/03 12:00:41;;;;;;;2.17;0.70;;;24.40;54.70;;;;;;4957509;28;20038;-68
2023/05/03 12:03:09;;;;;;;3.85;0.60;;;24.50;54.10;;;;;;4949956;28;20410;-68
2023/05/03 12:05:35;;;;;;;1.98;0.60;;;24.60;53.80;;;;;;4954053;28;20464;-68
2023/05/03 12:08:01;;;;;;;3.28;0.60;;;24.70;53.60;;;;;;4955218;28;20509;-67
2023/05/03 12:10:32;;;;;;;2.13;0.50;;;24.70;52.70;;;;;;4947612;28;20069;-68
2023/05/03 12:12:59;;;;;;;2.95;0.50;;;24.60;52.70;;;;;;4949882;28;20607;-67
2023/05/03 12:15:30;;;;;;;3.35;0.50;;;24.40;52.40;;;;;;4955171;28;20481;-68
2023/05/03 12:17:58;;;;;;;3.05;0.80;;;24.60;52.40;;;;;;4957105;28;20046;-68
2023/05/03 12:20:27;;;;;;;3.70;0.60;;;24.80;51.50;;;;;;4957869;28;20061;-67
2023/05/03 12:22:56;;;;;;;2.45;0.68;;;24.60;50.70;;;;;;4938602;28;20679;-68
2023/05/03 12:25:22;;;;;;;1.67;0.50;;;24.50;50.80;;;;;;4956049;28;20038;-68
2023/05/03 12:27:48;;;;;;;2.38;0.60;;;24.80;50.70;;;;;;4954291;28;20036;-68
2023/05/03 12:30:15;;;;;;;2.72;0.50;;;25.20;50.90;;;;;;4953844;28;20034;-68
2023/05/03 12:32:41;;;;;;;2.95;0.75;;;25.80;50.90;;;;;;4949272;28;20041;-68
2023/05/03 12:35:08;;;;;;;2.85;0.50;;;26.20;50.50;;;;;;4937629;28;20038;-68
2023/05/03 12:37:35;;;;;;;1.92;0.50;;;26.50;49.60;;;;;;4954427;28;20042;-68
2023/05/03 12:40:05;;;;;;;2.22;0.63;;;26.90;49.20;;;;;;4953262;28;20049;-69
2023/05/03 12:42:32;;;;;;;2.53;0.80;;;27.10;48.10;;;;;;4958178;28;20829;-69
2023/05/03 12:44:58;;;;;;;1.67;0.47;;;27.20;47.00;;;;;;4955276;28;20034;-68
2023/05/03 12:47:28;;;;;;;2.83;0.60;;;27.10;47.40;;;;;;4956252;28;20038;-68
2023/05/03 12:49:54;;;;;;;1.85;0.43;;;27.30;46.80;;;;;;4950022;28;20668;-69
2023/05/03 12:52:21;;;;;;;2.47;0.80;;;27.50;46.10;;;;;;4953227;28;20382;-69
2023/05/03 12:54:48;;;;;;;2.33;0.60;;;27.40;45.90;;;;;;4948892;28;20046;-68
2023/05/03 12:57:15;;;;;;;2.50;0.77;;;27.60;45.80;;;;;;4953112;28;20505;-69
2023/05/03 12:59:42;;;;;;;2.10;0.60;;;27.60;45.60;;;;;;4954049;28;21124;-68